Time;durP1;ratioP1;P1;durP2;ratioP2;P2;SDS_P1;SDS_P2;PMS_P1;PMS_P2;Temp;Humidity;BMP_temperature;BMP_pressure;BME280_temperature;BME280_humidity;BME280_pressure;Samples;Min_cycle;Max_cycle;Signal;HPM_P1;HPM_P2
2022/06/23 00:01:54;;;;;;;12.33;3.13;;;17.10;99.90;;;;;;5094269;28;20485;-78
2022/06/23 00:04:24;;;;;;;8.67;3.23;;;17.20;99.90;;;;;;5113844;28;20489;-76
2022/06/23 00:07:02;;;;;;;23.47;3.30;;;17.10;99.90;;;;;;5117437;28;20526;-78
2022/06/23 00:09:37;;;;;;;12.30;3.40;;;17.00;99.90;;;;;;5118586;28;20410;-79
2022/06/23 00:12:18;;;;;;;14.40;3.20;;;17.00;99.90;;;;;;5112531;28;20429;-76
2022/06/23 00:14:48;;;;;;;13.30;2.73;;;16.90;99.90;;;;;;5102597;28;20422;-77
2022/06/23 00:17:22;;;;;;;15.37;2.97;;;16.90;99.90;;;;;;5093107;28;20448;-75
2022/06/23 00:19:48;;;;;;;17.90;2.97;;;16.90;99.90;;;;;;5104604;28;20445;-79
2022/06/23 00:22:17;;;;;;;14.50;3.37;;;16.90;99.90;;;;;;5090475;28;20566;-79
2022/06/23 00:24:44;;;;;;;8.93;3.67;;;16.90;99.90;;;;;;5101991;28;20231;-78
2022/06/23 00:27:16;;;;;;;17.60;3.33;;;16.90;99.90;;;;;;5103760;28;20505;-79
2022/06/23 00:29:44;;;;;;;8.13;3.27;;;16.90;99.90;;;;;;5104978;28;20421;-79
2022/06/23 00:32:12;;;;;;;8.00;3.07;;;17.00;99.90;;;;;;5103573;28;20473;-78
2022/06/23 00:34:40;;;;;;;9.77;3.60;;;17.10;99.90;;;;;;5083136;28;20433;-78
2022/06/23 00:37:12;;;;;;;20.30;3.97;;;17.10;99.90;;;;;;5095603;28;20429;-79
2022/06/23 00:39:42;;;;;;;12.60;4.83;;;17.20;99.90;;;;;;5071082;28;20427;-79
2022/06/23 00:42:23;;;;;;;12.90;4.00;;;17.10;99.90;;;;;;5087423;28;20473;-77
2022/06/23 00:44:55;;;;;;;17.53;3.07;;;17.10;99.90;;;;;;5087916;28;20425;-78
2022/06/23 00:47:52;;;;;;;13.43;3.40;;;17.20;99.90;;;;;;5093140;28;20418;-78
2022/06/23 00:50:18;;;;;;;10.93;3.53;;;17.10;99.90;;;;;;5087728;28;20552;-78
2022/06/23 00:53:05;;;;;;;15.73;3.47;;;17.00;99.90;;;;;;5086678;28;20882;-79
2022/06/23 00:55:34;;;;;;;9.80;4.00;;;16.90;99.90;;;;;;5092199;28;20716;-74
2022/06/23 00:58:14;;;;;;;6.90;3.80;;;16.90;99.90;;;;;;5089097;28;20914;-79
2022/06/23 01:00:42;;;;;;;13.70;2.93;;;17.00;99.90;;;;;;5087775;28;20891;-78
2022/06/23 01:03:07;;;;;;;7.93;3.07;;;17.00;99.90;;;;;;5099780;28;20446;-79
2022/06/23 01:05:54;;;;;;;6.63;3.20;;;17.00;99.90;;;;;;5114475;28;20418;-80
2022/06/23 01:08:43;;;;;;;13.63;4.60;;;16.90;99.90;;;;;;5121779;28;20172;-79
2022/06/23 01:11:33;;;;;;;13.83;3.83;;;16.90;99.90;;;;;;5117420;28;20406;-78
2022/06/23 01:14:15;;;;;;;17.43;4.53;;;16.80;99.90;;;;;;5118097;28;20468;-78
2022/06/23 01:16:45;;;;;;;20.77;3.50;;;16.70;99.90;;;;;;5118410;28;20427;-78
2022/06/23 01:19:32;;;;;;;11.80;4.27;;;16.70;99.90;;;;;;5109757;28;20430;-78
2022/06/23 01:22:02;;;;;;;13.40;4.57;;;16.70;99.90;;;;;;5088504;28;20523;-77
2022/06/23 01:24:34;;;;;;;10.43;3.80;;;16.70;99.90;;;;;;5087190;28;20443;-78
2022/06/23 01:27:21;;;;;;;12.10;3.37;;;16.60;99.90;;;;;;5101845;28;20414;-77
2022/06/23 01:30:02;;;;;;;10.43;3.43;;;16.60;99.90;;;;;;5087210;28;20415;-78
2022/06/23 01:32:41;;;;;;;9.53;4.30;;;16.60;99.90;;;;;;5097449;28;20441;-78
2022/06/23 01:35:13;;;;;;;16.50;3.83;;;16.50;99.90;;;;;;5091857;28;20421;-76
2022/06/23 01:37:41;;;;;;;14.10;3.70;;;16.50;99.90;;;;;;5088777;28;20445;-78
2022/06/23 01:40:20;;;;;;;9.47;3.37;;;16.40;99.90;;;;;;5087471;28;20422;-79
2022/06/23 01:43:04;;;;;;;10.07;4.23;;;16.40;99.90;;;;;;5088477;28;20509;-79
2022/06/23 01:46:02;;;;;;;6.90;2.60;;;16.40;99.90;;;;;;5100540;28;20434;-79
2022/06/23 01:48:57;;;;;;;10.23;3.07;;;16.30;99.90;;;;;;5087267;28;20596;-77
2022/06/23 01:51:32;;;;;;;6.47;3.30;;;16.20;99.90;;;;;;5086769;28;20823;-78
2022/06/23 01:54:19;;;;;;;20.93;5.07;;;16.20;99.90;;;;;;5095161;28;20464;-79
2022/06/23 01:56:51;;;;;;;14.40;3.50;;;16.10;99.90;;;;;;5100955;28;20955;-78
2022/06/23 01:59:31;;;;;;;10.93;3.43;;;16.10;99.90;;;;;;5086557;28;20418;-75
2022/06/23 02:02:18;;;;;;;16.93;3.70;;;16.10;99.90;;;;;;5092513;28;20980;-78
2022/06/23 02:04:49;;;;;;;8.00;3.10;;;16.10;99.90;;;;;;5089660;28;20402;-77
2022/06/23 02:07:20;;;;;;;10.60;3.77;;;16.10;99.90;;;;;;5072463;28;20422;-78
2022/06/23 02:09:50;;;;;;;16.33;2.73;;;16.00;99.90;;;;;;5091009;28;20426;-79
2022/06/23 02:12:41;;;;;;;16.53;4.40;;;16.00;99.90;;;;;;5090223;28;20485;-78
2022/06/23 02:15:23;;;;;;;11.63;3.83;;;16.00;99.90;;;;;;5098761;28;20437;-79
2022/06/23 02:18:13;;;;;;;14.90;3.70;;;15.90;99.90;;;;;;5090674;28;20430;-79
2022/06/23 02:20:52;;;;;;;21.83;3.60;;;15.90;99.90;;;;;;5090257;28;20815;-79
2022/06/23 02:23:53;;;;;;;10.13;3.60;;;15.80;99.90;;;;;;5090513;28;20482;-79
2022/06/23 02:27:05;;;;;;;13.77;4.30;;;15.80;99.90;;;;;;5090963;28;20417;-79
2022/06/23 02:29:50;;;;;;;10.63;3.47;;;15.80;99.90;;;;;;5047305;28;20870;-77
2022/06/23 02:32:21;;;;;;;10.77;3.53;;;15.80;99.90;;;;;;5090477;28;20865;-78
2022/06/23 02:34:56;;;;;;;10.07;3.20;;;15.80;99.90;;;;;;5098194;28;20460;-79
2022/06/23 02:38:01;;;;;;;16.27;3.53;;;15.70;99.90;;;;;;5094674;28;20418;-79
2022/06/23 02:40:30;;;;;;;22.77;3.60;;;15.70;99.90;;;;;;5089753;28;20987;-79
2022/06/23 02:43:01;;;;;;;6.77;3.47;;;15.70;99.90;;;;;;5089659;28;20434;-79
2022/06/23 02:46:09;;;;;;;7.93;3.00;;;15.70;99.90;;;;;;5090439;28;21080;-78
2022/06/23 02:49:06;;;;;;;7.93;3.30;;;15.70;99.90;;;;;;5108190;27;20412;-79
2022/06/23 02:51:54;;;;;;;12.37;4.00;;;15.70;99.90;;;;;;5089297;28;20949;-79
2022/06/23 02:54:35;;;;;;;7.67;3.73;;;15.70;99.90;;;;;;5089827;28;20808;-78
2022/06/23 02:57:06;;;;;;;10.60;3.30;;;15.60;99.90;;;;;;5091086;28;20610;-79
2022/06/23 03:00:01;;;;;;;8.00;3.70;;;15.60;99.90;;;;;;5089479;28;20414;-78
2022/06/23 03:02:42;;;;;;;12.20;3.80;;;15.60;99.90;;;;;;5077387;28;20477;-79
2022/06/23 03:05:27;;;;;;;14.33;3.97;;;15.50;99.90;;;;;;5070971;28;20426;-78
2022/06/23 03:08:09;;;;;;;13.43;3.27;;;15.50;99.90;;;;;;5089244;28;20461;-79
2022/06/23 03:10:38;;;;;;;9.13;2.60;;;15.50;99.90;;;;;;5087169;28;20438;-79
2022/06/23 03:13:07;;;;;;;15.87;4.07;;;15.50;99.90;;;;;;5098512;28;20453;-79
2022/06/23 03:15:56;;;;;;;14.13;3.03;;;15.50;99.90;;;;;;5098948;28;20925;-78
2022/06/23 03:18:33;;;;;;;6.00;3.10;;;15.50;99.90;;;;;;5082057;28;20890;-79
2022/06/23 03:21:06;;;;;;;12.50;3.67;;;15.50;99.90;;;;;;5107301;28;20498;-79
2022/06/23 03:23:41;;;;;;;6.83;3.10;;;15.50;99.90;;;;;;5087791;28;20456;-79
2022/06/23 03:26:16;;;;;;;7.37;3.20;;;15.50;99.90;;;;;;5088663;28;20414;-79
2022/06/23 03:28:58;;;;;;;9.63;2.70;;;15.50;99.90;;;;;;5088520;28;20410;-79
2022/06/23 03:31:39;;;;;;;18.67;3.50;;;15.40;99.90;;;;;;5070693;28;20448;-79
2022/06/23 03:34:49;;;;;;;11.73;3.03;;;15.50;99.90;;;;;;5098984;28;20454;-77
2022/06/23 03:37:47;;;;;;;10.53;3.30;;;15.50;99.90;;;;;;5082017;28;20418;-77
2022/06/23 03:43:32;;;;;;;9.50;3.03;;;15.40;99.90;;;;;;5105517;27;20434;-79
2022/06/23 03:46:16;;;;;;;10.40;3.27;;;15.40;99.90;;;;;;5087871;28;20433;-78
2022/06/23 03:48:53;;;;;;;7.17;2.90;;;15.40;99.90;;;;;;5111372;27;20416;-79
2022/06/23 03:51:28;;;;;;;9.10;2.93;;;15.40;99.90;;;;;;5101818;28;20471;-79
2022/06/23 03:53:56;;;;;;;8.50;2.83;;;15.40;99.90;;;;;;5087845;28;20499;-78
2022/06/23 03:56:25;;;;;;;15.80;3.10;;;15.40;99.90;;;;;;5069859;28;20428;-78
2022/06/23 03:59:02;;;;;;;21.20;2.90;;;15.30;99.90;;;;;;5094940;28;20428;-78
2022/06/23 04:01:45;;;;;;;6.50;3.23;;;15.40;99.90;;;;;;5081672;28;20541;-79
2022/06/23 04:04:22;;;;;;;18.43;3.23;;;15.40;99.90;;;;;;5075257;28;20974;-79
2022/06/23 04:06:52;;;;;;;8.80;3.07;;;15.40;99.90;;;;;;5098827;27;21178;-78
2022/06/23 04:09:24;;;;;;;15.87;3.53;;;15.40;99.90;;;;;;5098065;27;20806;-79
2022/06/23 04:11:57;;;;;;;18.00;3.67;;;15.40;99.90;;;;;;5096235;27;20481;-78
2022/06/23 04:14:41;;;;;;;12.17;4.30;;;15.40;99.90;;;;;;5076545;28;20439;-78
2022/06/23 04:17:15;;;;;;;17.13;5.43;;;15.50;99.90;;;;;;5098920;27;20504;-78
2022/06/23 04:19:50;;;;;;;15.40;7.40;;;15.50;99.90;;;;;;5074493;28;21062;-78
2022/06/23 04:22:40;;;;;;;10.00;5.17;;;15.50;99.90;;;;;;5103687;27;21229;-78
2022/06/23 04:25:11;;;;;;;15.03;5.70;;;15.50;99.90;;;;;;5095463;27;20433;-79
2022/06/23 04:27:46;;;;;;;20.57;5.83;;;15.50;99.90;;;;;;5092472;27;20411;-79
2022/06/23 04:30:36;;;;;;;10.37;5.13;;;15.50;99.90;;;;;;5104449;27;20447;-78
2022/06/23 04:33:05;;;;;;;8.07;4.10;;;15.60;99.90;;;;;;5120192;27;20502;-78
2022/06/23 04:35:37;;;;;;;8.93;3.67;;;15.60;99.90;;;;;;5125187;27;20417;-78
2022/06/23 04:38:22;;;;;;;15.83;4.67;;;15.60;99.90;;;;;;5128249;27;21182;-77
2022/06/23 04:40:55;;;;;;;9.30;3.63;;;15.60;99.90;;;;;;5123346;27;20420;-78
2022/06/23 04:43:41;;;;;;;7.43;3.93;;;15.60;99.90;;;;;;5095546;28;20811;-78
2022/06/23 04:46:15;;;;;;;9.40;3.60;;;15.70;99.90;;;;;;5099331;28;20956;-79
2022/06/23 04:48:43;;;;;;;16.80;4.53;;;15.70;99.90;;;;;;5100073;28;20524;-77
2022/06/23 04:51:27;;;;;;;16.87;3.77;;;15.70;99.90;;;;;;5091047;28;20482;-78
2022/06/23 04:53:58;;;;;;;15.20;4.47;;;15.80;99.90;;;;;;5086846;28;20442;-79
2022/06/23 04:56:37;;;;;;;10.40;3.07;;;15.80;99.90;;;;;;5089674;28;20453;-76
2022/06/23 04:59:28;;;;;;;12.53;3.67;;;15.90;99.90;;;;;;5109369;27;20442;-79
2022/06/23 05:01:56;;;;;;;12.90;3.80;;;15.90;99.90;;;;;;5100374;27;20452;-77
2022/06/23 05:04:42;;;;;;;8.13;3.40;;;16.00;99.90;;;;;;5109995;27;20542;-78
2022/06/23 05:07:41;;;;;;;10.50;4.00;;;16.10;99.90;;;;;;5108548;27;20436;-78
2022/06/23 05:10:20;;;;;;;8.40;4.20;;;16.10;99.90;;;;;;5095102;27;20776;-78
2022/06/23 05:12:53;;;;;;;8.50;4.60;;;16.20;99.90;;;;;;5114236;27;20447;-77
2022/06/23 05:15:31;;;;;;;8.37;4.10;;;16.30;99.90;;;;;;5116354;27;20803;-75
2022/06/23 05:18:03;;;;;;;13.50;3.70;;;16.40;99.90;;;;;;5116335;27;20428;-79
2022/06/23 05:20:50;;;;;;;12.77;4.73;;;16.40;99.90;;;;;;5112705;27;20430;-78
2022/06/23 05:23:20;;;;;;;24.30;4.80;;;16.50;99.90;;;;;;5111837;28;20434;-77
2022/06/23 05:25:52;;;;;;;16.43;4.30;;;16.60;99.90;;;;;;5099488;28;20916;-77
2022/06/23 05:28:32;;;;;;;10.90;3.73;;;16.70;99.90;;;;;;5109043;28;20958;-78
2022/06/23 05:31:01;;;;;;;36.17;4.13;;;16.70;99.90;;;;;;5106940;28;20416;-78
2022/06/23 05:33:42;;;;;;;11.17;4.80;;;16.80;99.90;;;;;;5083229;28;20490;-78
2022/06/23 05:36:21;;;;;;;18.57;4.27;;;16.90;99.90;;;;;;5099087;28;20425;-78
2022/06/23 05:39:17;;;;;;;15.13;4.47;;;17.00;99.90;;;;;;5104319;27;20494;-78
2022/06/23 05:41:47;;;;;;;8.70;3.80;;;17.00;99.90;;;;;;5107716;27;21289;-79
2022/06/23 05:44:20;;;;;;;12.80;4.93;;;17.10;99.90;;;;;;5101601;27;20456;-75
2022/06/23 05:46:48;;;;;;;9.93;4.40;;;17.20;99.90;;;;;;5108894;27;20410;-77
2022/06/23 05:49:22;;;;;;;7.43;3.90;;;17.20;99.90;;;;;;5115286;27;20420;-77
2022/06/23 05:52:00;;;;;;;15.80;4.20;;;17.30;99.90;;;;;;5090973;28;20449;-76
2022/06/23 05:54:40;;;;;;;8.80;3.13;;;17.40;99.90;;;;;;5091443;28;20516;-76
2022/06/23 05:57:19;;;;;;;11.90;3.60;;;17.50;99.90;;;;;;5111096;28;20438;-75
2022/06/23 05:59:45;;;;;;;13.10;5.03;;;17.70;99.90;;;;;;5125964;28;20969;-75
2022/06/23 06:02:34;;;;;;;28.50;3.80;;;17.80;99.90;;;;;;5118312;28;20557;-76
2022/06/23 06:05:01;;;;;;;6.57;3.70;;;17.90;99.90;;;;;;5105821;28;20198;-76
2022/06/23 06:07:38;;;;;;;9.20;3.50;;;18.00;99.90;;;;;;5093315;28;20509;-77
2022/06/23 06:10:15;;;;;;;16.53;4.97;;;18.10;99.90;;;;;;5093266;28;20526;-76
2022/06/23 06:12:42;;;;;;;9.33;3.57;;;18.20;99.90;;;;;;5092486;28;20438;-78
2022/06/23 06:15:08;;;;;;;11.00;4.03;;;18.40;99.90;;;;;;5092802;28;20453;-77
2022/06/23 06:17:36;;;;;;;8.47;2.83;;;18.40;99.90;;;;;;5091201;28;20447;-78
2022/06/23 06:20:08;;;;;;;7.40;2.50;;;18.50;99.90;;;;;;5092252;28;20184;-77
2022/06/23 06:22:55;;;;;;;10.70;3.97;;;18.60;99.90;;;;;;5099432;27;20483;-75
2022/06/23 06:25:29;;;;;;;9.13;2.83;;;18.70;99.90;;;;;;5128780;27;20412;-77
2022/06/23 06:28:01;;;;;;;10.70;3.53;;;18.70;99.90;;;;;;5109349;27;21139;-77
2022/06/23 06:30:34;;;;;;;8.37;2.77;;;18.80;99.90;;;;;;5128740;27;20425;-76
2022/06/23 06:33:01;;;;;;;12.47;3.17;;;18.90;99.90;;;;;;5125673;27;20464;-76
2022/06/23 06:35:38;;;;;;;7.13;2.60;;;19.00;99.90;;;;;;5128706;27;20456;-76
2022/06/23 06:38:14;;;;;;;8.90;2.77;;;19.00;99.90;;;;;;5127100;27;20412;-76
2022/06/23 06:40:43;;;;;;;5.73;2.50;;;19.10;99.90;;;;;;5128288;27;20424;-76
2022/06/23 06:43:26;;;;;;;16.23;3.20;;;19.10;99.90;;;;;;5126638;27;20436;-76
2022/06/23 06:45:52;;;;;;;4.47;2.80;;;19.20;99.90;;;;;;5105907;27;21033;-77
2022/06/23 06:48:30;;;;;;;11.33;2.57;;;19.30;99.90;;;;;;5113626;27;20547;-76
2022/06/23 06:51:01;;;;;;;8.10;2.47;;;19.40;99.90;;;;;;5094619;28;20187;-77
2022/06/23 06:53:53;;;;;;;9.83;2.37;;;19.40;99.90;;;;;;5096093;27;20569;-74
2022/06/23 06:56:34;;;;;;;5.37;2.40;;;19.60;99.90;;;;;;5117977;27;20589;-77
2022/06/23 06:59:31;;;;;;;8.60;2.60;;;19.70;99.90;;;;;;5123198;27;20511;-77
2022/06/23 07:02:03;;;;;;;5.20;2.53;;;19.90;99.90;;;;;;5101890;27;21135;-77
2022/06/23 07:04:35;;;;;;;10.77;2.37;;;20.00;99.90;;;;;;5118691;27;20435;-76
2022/06/23 07:07:07;;;;;;;13.20;3.30;;;20.20;99.90;;;;;;5108849;27;20823;-78
2022/06/23 07:09:57;;;;;;;8.90;2.37;;;20.30;99.90;;;;;;5118441;27;20439;-77
2022/06/23 07:12:41;;;;;;;4.47;1.90;;;20.40;99.90;;;;;;5110869;27;20494;-76
2022/06/23 07:15:18;;;;;;;9.53;1.93;;;20.50;99.90;;;;;;5117549;27;20430;-76
2022/06/23 07:17:50;;;;;;;5.20;2.53;;;20.80;99.90;;;;;;5123615;27;20412;-78
2022/06/23 07:20:22;;;;;;;7.63;2.13;;;21.00;99.90;;;;;;5115809;27;20452;-78
2022/06/23 07:22:54;;;;;;;11.63;1.63;;;21.20;99.90;;;;;;5120827;27;20472;-78
2022/06/23 07:25:46;;;;;;;3.30;1.87;;;21.50;99.90;;;;;;5100463;27;20424;-77
2022/06/23 07:28:34;;;;;;;7.83;2.23;;;22.00;99.90;;;;;;5104222;27;20831;-78
2022/06/23 07:31:17;;;;;;;6.17;2.60;;;22.40;99.90;;;;;;5105363;27;20422;-78
2022/06/23 07:34:13;;;;;;;9.53;2.27;;;23.20;99.90;;;;;;5111228;27;20460;-79
2022/06/23 07:36:47;;;;;;;9.33;2.37;;;23.50;99.90;;;;;;5100126;28;20798;-78
2022/06/23 07:39:18;;;;;;;4.93;1.60;;;23.80;99.90;;;;;;5096579;27;20429;-78
2022/06/23 07:41:50;;;;;;;5.77;2.50;;;24.40;99.90;;;;;;5109098;27;20457;-79
2022/06/23 07:44:41;;;;;;;5.50;2.23;;;25.10;99.90;;;;;;5122214;27;20455;-77
2022/06/23 07:47:06;;;;;;;9.13;2.80;;;26.40;97.30;;;;;;5103493;27;20238;-77
2022/06/23 07:49:33;;;;;;;17.85;2.35;;;27.00;94.80;;;;;;5092273;28;20707;-78
2022/06/23 07:52:00;;;;;;;9.98;1.95;;;27.30;94.60;;;;;;5089771;28;20176;-79
2022/06/23 07:54:27;;;;;;;3.72;1.60;;;28.00;92.90;;;;;;5093206;27;20248;-77
2022/06/23 07:56:53;;;;;;;16.75;2.38;;;28.60;90.30;;;;;;5102149;27;20187;-79
2022/06/23 07:59:23;;;;;;;6.13;1.95;;;28.90;90.10;;;;;;5096952;27;20229;-79
2022/06/23 08:02:09;;;;;;;3.42;1.30;;;29.00;88.70;;;;;;5088366;28;20206;-80
2022/06/23 08:04:53;;;;;;;5.03;2.70;;;29.60;86.10;;;;;;5106686;27;20910;-79
2022/06/23 08:07:19;;;;;;;8.93;1.90;;;30.20;84.20;;;;;;5107985;27;20202;-78
2022/06/23 08:09:52;;;;;;;2.58;1.73;;;30.30;83.60;;;;;;5102358;28;20176;-78
2022/06/23 08:18:11;;;;;;;9.80;2.60;;;30.60;83.20;;;;;;5106500;28;20542;-78
2022/06/23 08:20:42;;;;;;;3.60;1.45;;;30.10;82.60;;;;;;5112179;28;20642;-79
2022/06/23 08:23:10;;;;;;;9.73;2.25;;;30.60;83.20;;;;;;5111898;27;20240;-79
2022/06/23 08:25:36;;;;;;;3.67;2.00;;;31.10;80.40;;;;;;5132066;27;20199;-79
2022/06/23 08:28:04;;;;;;;4.55;1.85;;;30.80;80.70;;;;;;5111281;27;20179;-79
2022/06/23 08:30:32;;;;;;;5.75;2.47;;;30.50;81.30;;;;;;5107746;28;20183;-79
2022/06/23 08:32:58;;;;;;;26.25;2.15;;;30.60;82.50;;;;;;5077842;28;20211;-79
2022/06/23 08:35:31;;;;;;;12.95;2.50;;;30.80;81.10;;;;;;5087500;28;20179;-80
2022/06/23 08:38:04;;;;;;;6.07;2.22;;;30.60;82.30;;;;;;5097999;27;20587;-77
2022/06/23 08:41:16;;;;;;;12.27;2.45;;;30.30;84.10;;;;;;5101771;27;20175;-79
2022/06/23 08:43:45;;;;;;;11.38;1.65;;;29.80;81.20;;;;;;5103219;27;20877;-79
2022/06/23 08:46:17;;;;;;;4.78;1.83;;;29.40;79.70;;;;;;5099996;28;20906;-78
2022/06/23 08:48:43;;;;;;;9.20;1.73;;;29.40;81.20;;;;;;5086856;28;20971;-79
2022/06/23 08:51:11;;;;;;;6.22;2.35;;;29.30;83.00;;;;;;5099904;27;20270;-79
2022/06/23 08:53:49;;;;;;;9.05;1.50;;;29.50;81.70;;;;;;5093823;27;20653;-79
2022/06/23 08:56:45;;;;;;;8.02;2.33;;;29.60;81.80;;;;;;5076350;27;20183;-78
2022/06/23 08:59:32;;;;;;;12.95;4.03;;;29.30;80.50;;;;;;5082767;28;20179;-79
2022/06/23 09:02:04;;;;;;;38.28;7.28;;;29.70;82.10;;;;;;5077693;28;20211;-79
2022/06/23 09:04:44;;;;;;;11.55;3.47;;;29.50;82.60;;;;;;5077691;28;20279;-76
2022/06/23 09:07:47;;;;;;;9.43;2.70;;;30.50;81.40;;;;;;5105379;27;20195;-79
2022/06/23 09:10:22;;;;;;;6.72;1.83;;;29.80;83.30;;;;;;5092909;28;20183;-78
2022/06/23 09:13:05;;;;;;;12.65;2.65;;;29.60;81.60;;;;;;5099412;27;20714;-79
2022/06/23 09:15:45;;;;;;;3.00;1.70;;;29.60;82.50;;;;;;5099892;27;20906;-77
2022/06/23 09:18:14;;;;;;;8.32;2.00;;;29.30;82.00;;;;;;5105092;27;20191;-79
2022/06/23 09:20:50;;;;;;;3.47;1.92;;;29.50;82.50;;;;;;5098825;28;20171;-78
2022/06/23 09:23:19;;;;;;;8.40;2.97;;;29.40;80.70;;;;;;5098831;27;20586;-79
2022/06/23 09:26:22;;;;;;;6.20;1.75;;;29.70;83.50;;;;;;5096646;28;20190;-78
2022/06/23 09:28:57;;;;;;;5.53;1.73;;;29.60;80.20;;;;;;5092757;28;20204;-79
2022/06/23 09:31:31;;;;;;;3.88;1.70;;;29.30;80.30;;;;;;5071583;28;20262;-76
2022/06/23 09:34:09;;;;;;;3.50;1.50;;;29.60;78.70;;;;;;5094168;28;20218;-77
2022/06/23 09:36:51;;;;;;;10.88;3.05;;;29.60;80.80;;;;;;5070646;28;20657;-79
2022/06/23 09:39:22;;;;;;;4.32;2.05;;;30.00;81.30;;;;;;5078864;28;20196;-79
2022/06/23 09:42:12;;;;;;;6.10;1.35;;;29.80;79.00;;;;;;5075028;28;20238;-79
2022/06/23 09:44:40;;;;;;;10.40;1.55;;;29.80;77.80;;;;;;5076159;28;20311;-79
2022/06/23 09:47:28;;;;;;;5.78;1.60;;;29.80;80.20;;;;;;5082293;28;20188;-78
2022/06/23 09:50:12;;;;;;;9.43;1.92;;;29.40;82.30;;;;;;5081503;28;20172;-79
2022/06/23 09:53:04;;;;;;;3.90;1.95;;;29.30;82.20;;;;;;5074051;28;20216;-79
2022/06/23 09:55:33;;;;;;;5.80;2.35;;;29.40;81.40;;;;;;5088648;28;20176;-80
2022/06/23 09:58:20;;;;;;;14.88;2.78;;;29.10;81.20;;;;;;5072965;28;20176;-80
2022/06/23 10:00:54;;;;;;;13.90;3.05;;;29.20;82.30;;;;;;5080149;28;20198;-79
2022/06/23 10:03:35;;;;;;;23.00;3.47;;;29.10;84.80;;;;;;5085121;28;20233;-79
2022/06/23 10:06:04;;;;;;;5.32;2.13;;;29.00;83.30;;;;;;5070090;28;20177;-79
2022/06/23 10:08:32;;;;;;;10.55;2.22;;;29.30;81.00;;;;;;5076808;28;20180;-79
2022/06/23 10:11:04;;;;;;;36.28;3.20;;;29.00;82.10;;;;;;5084571;28;20184;-78
2022/06/23 10:14:01;;;;;;;4.38;1.50;;;29.30;83.80;;;;;;5080523;28;20590;-79
2022/06/23 10:16:49;;;;;;;3.88;1.50;;;29.30;84.50;;;;;;5083145;28;20180;-79
2022/06/23 10:19:45;;;;;;;4.97;2.08;;;29.20;81.90;;;;;;5072714;28;20171;-78
2022/06/23 10:22:38;;;;;;;10.55;1.85;;;29.20;80.10;;;;;;5074921;28;20208;-79
2022/06/23 10:25:22;;;;;;;10.57;1.67;;;29.20;83.10;;;;;;5071750;28;20260;-79
2022/06/23 10:28:09;;;;;;;3.15;1.10;;;29.20;79.80;;;;;;5080954;28;20234;-78
2022/06/23 10:31:05;;;;;;;3.42;1.50;;;29.10;80.50;;;;;;5081450;28;20202;-79
2022/06/23 10:33:51;;;;;;;3.15;1.38;;;28.50;81.70;;;;;;5077789;28;20208;-79
2022/06/23 10:36:37;;;;;;;13.88;2.03;;;28.10;82.70;;;;;;5082188;28;20188;-79
2022/06/23 10:39:12;;;;;;;6.43;1.65;;;28.10;86.20;;;;;;5075505;28;20173;-78
2022/06/23 10:42:13;;;;;;;8.27;2.25;;;28.30;82.20;;;;;;5069956;28;20233;-77
2022/06/23 10:44:50;;;;;;;12.23;1.45;;;28.60;81.20;;;;;;5057143;28;20198;-79
2022/06/23 10:47:40;;;;;;;10.25;1.70;;;28.60;80.00;;;;;;5086517;28;20187;-78
2022/06/23 10:50:48;;;;;;;3.00;1.17;;;27.80;83.60;;;;;;5069377;28;20194;-76
2022/06/23 10:53:20;;;;;;;7.60;1.33;;;27.90;83.70;;;;;;5076615;28;20202;-76
2022/06/23 10:56:06;;;;;;;4.67;1.53;;;27.80;83.40;;;;;;5079933;28;20191;-78
2022/06/23 10:58:50;;;;;;;3.50;1.57;;;27.90;83.90;;;;;;5069956;28;20667;-77
2022/06/23 11:01:18;;;;;;;3.93;1.67;;;27.90;84.50;;;;;;5071010;28;20199;-76
2022/06/23 11:04:16;;;;;;;4.17;1.70;;;27.80;84.50;;;;;;5068639;28;20226;-77
2022/06/23 11:07:16;;;;;;;5.13;1.80;;;28.00;86.20;;;;;;5071102;28;20184;-75
2022/06/23 11:10:14;;;;;;;3.50;1.30;;;28.20;85.10;;;;;;5057925;28;20184;-77
2022/06/23 11:12:39;;;;;;;11.20;2.80;;;28.40;85.00;;;;;;5078580;28;20194;-77
2022/06/23 11:15:22;;;;;;;7.53;2.27;;;28.30;86.40;;;;;;5056922;28;20192;-77
2022/06/23 11:18:14;;;;;;;7.83;1.90;;;28.50;84.00;;;;;;5067305;28;20183;-74
2022/06/23 11:20:48;;;;;;;8.60;2.20;;;28.60;84.20;;;;;;5084906;28;20188;-78
2022/06/23 11:23:44;;;;;;;6.30;2.50;;;28.60;80.20;;;;;;5084514;28;20316;-77
2022/06/23 11:26:39;;;;;;;13.20;1.80;;;28.50;85.80;;;;;;5082559;28;20188;-74
2022/06/23 11:29:26;;;;;;;3.30;1.77;;;28.10;85.40;;;;;;5061689;28;20180;-77
2022/06/23 11:32:00;;;;;;;5.27;1.80;;;28.30;84.50;;;;;;5080931;28;20210;-78
2022/06/23 11:34:58;;;;;;;9.10;2.60;;;28.50;83.90;;;;;;5084483;28;20290;-77
2022/06/23 11:38:03;;;;;;;6.20;1.33;;;28.50;83.80;;;;;;5022806;28;20664;-77
2022/06/23 11:40:56;;;;;;;4.20;1.80;;;28.50;83.70;;;;;;5072058;28;20333;-76
2022/06/23 11:43:52;;;;;;;3.50;1.27;;;28.50;86.10;;;;;;5081469;28;20244;-74
2022/06/23 11:46:34;;;;;;;19.27;2.70;;;28.50;83.80;;;;;;5082695;28;20187;-77
2022/06/23 11:49:21;;;;;;;7.03;2.08;;;28.90;83.00;;;;;;5092807;28;20191;-78
2022/06/23 11:51:58;;;;;;;5.07;1.67;;;28.50;83.50;;;;;;5077099;28;20189;-77
2022/06/23 11:54:27;;;;;;;7.80;1.87;;;28.00;84.70;;;;;;5066953;28;20208;-77
2022/06/23 11:56:58;;;;;;;8.30;2.73;;;28.10;86.00;;;;;;5068459;28;20255;-77
2022/06/23 11:59:42;;;;;;;4.40;1.87;;;28.40;87.20;;;;;;5081549;28;20228;-77
2022/06/23 12:02:08;;;;;;;17.75;2.35;;;28.40;85.60;;;;;;5086360;28;20215;-77
2022/06/23 12:04:48;;;;;;;3.67;1.57;;;28.40;82.20;;;;;;5073390;28;20216;-76
2022/06/23 12:07:20;;;;;;;7.37;1.90;;;28.50;84.70;;;;;;5061917;28;20275;-77
2022/06/23 12:10:02;;;;;;;24.00;2.20;;;28.40;85.00;;;;;;5081786;28;20181;-77
2022/06/23 12:12:31;;;;;;;5.27;1.60;;;28.60;82.30;;;;;;5059894;28;20193;-75
2022/06/23 12:14:57;;;;;;;29.85;4.18;;;29.00;82.10;;;;;;5095677;28;20179;-75
2022/06/23 12:17:43;;;;;;;10.40;3.17;;;28.90;82.30;;;;;;5101379;28;20195;-74
2022/06/23 12:20:15;;;;;;;5.97;2.03;;;29.20;81.90;;;;;;5079915;28;20340;-78
2022/06/23 12:22:48;;;;;;;11.73;1.65;;;29.30;82.60;;;;;;5066224;28;20798;-78
2022/06/23 12:25:19;;;;;;;4.78;1.52;;;29.60;81.00;;;;;;5078556;28;20254;-78
2022/06/23 12:28:02;;;;;;;3.65;1.15;;;29.40;80.60;;;;;;5077388;28;20187;-78
2022/06/23 12:30:32;;;;;;;9.07;2.47;;;29.30;80.30;;;;;;5058361;28;20184;-76
2022/06/23 12:33:12;;;;;;;12.75;2.05;;;29.20;81.90;;;;;;5073582;28;20239;-79
2022/06/23 12:35:51;;;;;;;4.15;1.60;;;29.60;79.00;;;;;;5067426;28;20225;-77
2022/06/23 12:38:33;;;;;;;6.32;2.28;;;29.70;77.60;;;;;;5051808;28;20187;-75
2022/06/23 12:41:18;;;;;;;6.40;1.60;;;29.80;77.90;;;;;;5075430;28;20188;-78
2022/06/23 12:43:57;;;;;;;3.85;1.55;;;29.90;78.20;;;;;;5072600;28;20224;-78
2022/06/23 12:47:05;;;;;;;6.00;1.60;;;29.80;79.80;;;;;;5061715;28;20188;-78
2022/06/23 12:49:31;;;;;;;5.97;1.20;;;29.60;80.50;;;;;;5041249;28;20617;-75
2022/06/23 12:52:21;;;;;;;9.20;2.33;;;29.90;78.50;;;;;;5082141;28;20241;-76
2022/06/23 12:55:02;;;;;;;5.53;1.50;;;29.80;78.00;;;;;;5067773;28;20188;-74
2022/06/23 12:57:36;;;;;;;5.25;2.67;;;29.80;77.50;;;;;;5069827;28;20208;-76
2022/06/23 13:00:18;;;;;;;8.85;2.70;;;30.00;76.60;;;;;;5075364;28;20280;-77
2022/06/23 13:02:56;;;;;;;11.95;1.83;;;30.00;79.50;;;;;;5085161;28;20211;-77
2022/06/23 13:05:37;;;;;;;8.70;2.17;;;30.10;78.60;;;;;;5079265;28;20188;-76
2022/06/23 13:08:19;;;;;;;6.90;1.70;;;30.00;79.90;;;;;;5077508;28;20182;-77
2022/06/23 13:10:55;;;;;;;8.80;2.75;;;30.00;78.70;;;;;;5068170;28;20341;-77
2022/06/23 13:13:21;;;;;;;10.23;1.98;;;30.00;78.70;;;;;;5077295;28;20322;-78
2022/06/23 13:16:04;;;;;;;11.10;1.75;;;30.20;77.50;;;;;;5077219;28;21125;-77
2022/06/23 13:19:05;;;;;;;8.52;1.67;;;30.40;76.00;;;;;;5079591;28;20187;-77
2022/06/23 13:21:33;;;;;;;10.45;2.72;;;30.30;77.60;;;;;;5102633;28;20206;-77
2022/06/23 13:24:08;;;;;;;7.32;2.00;;;30.30;76.80;;;;;;5085503;28;20199;-78
2022/06/23 13:26:38;;;;;;;9.02;2.03;;;29.80;76.50;;;;;;5075157;28;20184;-77
2022/06/23 13:29:21;;;;;;;3.40;1.70;;;30.00;77.80;;;;;;5072274;28;20180;-78
2022/06/23 13:31:50;;;;;;;11.75;2.20;;;29.70;77.70;;;;;;5073808;28;20203;-77
2022/06/23 13:34:29;;;;;;;10.48;2.28;;;29.90;78.30;;;;;;5074073;28;21041;-78
2022/06/23 13:37:13;;;;;;;2.38;1.45;;;30.00;77.10;;;;;;5075052;28;20658;-77
2022/06/23 13:39:55;;;;;;;5.03;2.42;;;30.00;77.00;;;;;;5070747;28;20650;-78
2022/06/23 13:42:24;;;;;;;8.32;2.53;;;30.00;78.50;;;;;;5075099;28;20211;-78
2022/06/23 13:44:55;;;;;;;11.13;2.58;;;30.20;77.20;;;;;;5071131;28;20657;-75
2022/06/23 13:47:55;;;;;;;5.38;2.42;;;30.50;73.40;;;;;;5077734;28;20183;-79
2022/06/23 13:50:27;;;;;;;6.68;1.90;;;30.40;74.70;;;;;;5071585;28;20262;-78
2022/06/23 13:53:00;;;;;;;5.90;1.70;;;30.50;75.50;;;;;;5068198;28;20651;-78